sensor_id;sensor_type;location;lat;lon;timestamp;P1;durP1;ratioP1;P2;durP2;ratioP2
8435;SDS011;4255;48.730;9.156;2023-08-20T00:01:12;14.60;;;13.13;;
8435;SDS011;4255;48.730;9.156;2023-08-20T00:03:40;14.03;;;12.43;;
8435;SDS011;4255;48.730;9.156;2023-08-20T00:06:07;14.23;;;12.83;;
8435;SDS011;4255;48.730;9.156;2023-08-20T00:08:32;15.80;;;14.20;;
8435;SDS011;4255;48.730;9.156;2023-08-20T00:10:58;18.37;;;15.10;;
8435;SDS011;4255;48.730;9.156;2023-08-20T00:13:24;15.40;;;13.73;;
8435;SDS011;4255;48.730;9.156;2023-08-20T00:15:50;15.43;;;13.47;;
8435;SDS011;4255;48.730;9.156;2023-08-20T00:18:15;14.20;;;12.73;;
8435;SDS011;4255;48.730;9.156;2023-08-20T00:20:41;17.13;;;14.97;;
8435;SDS011;4255;48.730;9.156;2023-08-20T00:23:07;16.90;;;14.00;;
8435;SDS011;4255;48.730;9.156;2023-08-20T00:25:33;15.10;;;13.00;;
8435;SDS011;4255;48.730;9.156;2023-08-20T00:27:59;14.70;;;13.30;;
8435;SDS011;4255;48.730;9.156;2023-08-20T00:30:25;15.07;;;13.57;;
8435;SDS011;4255;48.730;9.156;2023-08-20T00:32:50;16.80;;;15.10;;
8435;SDS011;4255;48.730;9.156;2023-08-20T00:35:16;15.90;;;14.30;;
8435;SDS011;4255;48.730;9.156;2023-08-20T00:37:41;15.23;;;13.63;;
8435;SDS011;4255;48.730;9.156;2023-08-20T00:40:09;16.20;;;14.57;;
8435;SDS011;4255;48.730;9.156;2023-08-20T00:42:36;19.10;;;13.00;;
8435;SDS011;4255;48.730;9.156;2023-08-20T00:45:02;19.27;;;13.83;;
8435;SDS011;4255;48.730;9.156;2023-08-20T00:47:29;16.00;;;14.43;;
8435;SDS011;4255;48.730;9.156;2023-08-20T00:49:55;15.03;;;13.60;;
8435;SDS011;4255;48.730;9.156;2023-08-20T00:52:21;17.93;;;13.60;;
8435;SDS011;4255;48.730;9.156;2023-08-20T00:54:47;15.30;;;12.57;;
8435;SDS011;4255;48.730;9.156;2023-08-20T00:57:14;18.10;;;14.33;;
8435;SDS011;4255;48.730;9.156;2023-08-20T00:59:43;14.10;;;12.77;;
8435;SDS011;4255;48.730;9.156;2023-08-20T01:02:09;15.23;;;13.83;;
8435;SDS011;4255;48.730;9.156;2023-08-20T01:04:35;17.30;;;15.10;;
8435;SDS011;4255;48.730;9.156;2023-08-20T01:07:06;15.43;;;14.03;;
8435;SDS011;4255;48.730;9.156;2023-08-20T01:12:43;15.57;;;13.77;;
8435;SDS011;4255;48.730;9.156;2023-08-20T01:15:10;23.00;;;15.43;;
8435;SDS011;4255;48.730;9.156;2023-08-20T01:17:39;17.27;;;14.57;;
8435;SDS011;4255;48.730;9.156;2023-08-20T01:20:05;16.70;;;15.00;;
8435;SDS011;4255;48.730;9.156;2023-08-20T01:22:56;16.63;;;14.90;;
8435;SDS011;4255;48.730;9.156;2023-08-20T01:28:43;22.63;;;17.00;;
8435;SDS011;4255;48.730;9.156;2023-08-20T01:31:10;18.60;;;15.50;;
8435;SDS011;4255;48.730;9.156;2023-08-20T01:33:36;17.07;;;15.37;;
8435;SDS011;4255;48.730;9.156;2023-08-20T01:36:02;17.33;;;15.33;;
8435;SDS011;4255;48.730;9.156;2023-08-20T01:38:34;17.57;;;15.80;;
8435;SDS011;4255;48.730;9.156;2023-08-20T01:41:00;18.10;;;16.33;;
8435;SDS011;4255;48.730;9.156;2023-08-20T01:43:26;20.50;;;16.07;;
8435;SDS011;4255;48.730;9.156;2023-08-20T01:45:51;17.53;;;15.83;;
8435;SDS011;4255;48.730;9.156;2023-08-20T01:48:17;18.00;;;16.17;;
8435;SDS011;4255;48.730;9.156;2023-08-20T01:50:42;22.17;;;15.97;;
8435;SDS011;4255;48.730;9.156;2023-08-20T01:53:09;19.00;;;14.17;;
8435;SDS011;4255;48.730;9.156;2023-08-20T01:55:34;17.70;;;16.10;;
8435;SDS011;4255;48.730;9.156;2023-08-20T01:58:00;17.30;;;15.50;;
8435;SDS011;4255;48.730;9.156;2023-08-20T02:00:26;18.53;;;15.97;;
8435;SDS011;4255;48.730;9.156;2023-08-20T02:02:52;19.40;;;16.63;;
8435;SDS011;4255;48.730;9.156;2023-08-20T02:05:18;18.13;;;16.23;;
8435;SDS011;4255;48.730;9.156;2023-08-20T02:07:43;22.03;;;16.37;;
8435;SDS011;4255;48.730;9.156;2023-08-20T02:10:09;25.97;;;17.27;;
8435;SDS011;4255;48.730;9.156;2023-08-20T02:12:35;17.87;;;16.00;;
8435;SDS011;4255;48.730;9.156;2023-08-20T02:15:01;18.07;;;16.27;;
8435;SDS011;4255;48.730;9.156;2023-08-20T02:17:28;18.40;;;16.40;;
8435;SDS011;4255;48.730;9.156;2023-08-20T02:19:54;20.63;;;16.93;;
8435;SDS011;4255;48.730;9.156;2023-08-20T02:22:19;17.83;;;15.93;;
8435;SDS011;4255;48.730;9.156;2023-08-20T02:24:46;18.63;;;16.60;;
8435;SDS011;4255;48.730;9.156;2023-08-20T02:27:11;18.30;;;16.23;;
8435;SDS011;4255;48.730;9.156;2023-08-20T02:29:37;20.47;;;18.03;;
8435;SDS011;4255;48.730;9.156;2023-08-20T02:32:03;20.57;;;15.87;;
8435;SDS011;4255;48.730;9.156;2023-08-20T02:34:28;21.10;;;16.67;;
8435;SDS011;4255;48.730;9.156;2023-08-20T02:36:54;18.43;;;16.47;;
8435;SDS011;4255;48.730;9.156;2023-08-20T02:39:20;18.43;;;16.43;;
8435;SDS011;4255;48.730;9.156;2023-08-20T02:41:45;19.20;;;16.27;;
8435;SDS011;4255;48.730;9.156;2023-08-20T02:44:11;16.80;;;15.20;;
8435;SDS011;4255;48.730;9.156;2023-08-20T02:46:38;16.70;;;15.17;;
8435;SDS011;4255;48.730;9.156;2023-08-20T02:49:05;14.87;;;13.10;;
8435;SDS011;4255;48.730;9.156;2023-08-20T02:51:31;17.70;;;15.90;;
8435;SDS011;4255;48.730;9.156;2023-08-20T02:53:57;17.77;;;15.90;;
8435;SDS011;4255;48.730;9.156;2023-08-20T02:56:22;19.03;;;16.17;;
8435;SDS011;4255;48.730;9.156;2023-08-20T02:58:48;19.33;;;17.37;;
8435;SDS011;4255;48.730;9.156;2023-08-20T03:01:20;18.10;;;16.20;;
8435;SDS011;4255;48.730;9.156;2023-08-20T03:03:47;17.13;;;15.60;;
8435;SDS011;4255;48.730;9.156;2023-08-20T03:06:12;18.27;;;16.47;;
8435;SDS011;4255;48.730;9.156;2023-08-20T03:08:38;20.13;;;16.57;;
8435;SDS011;4255;48.730;9.156;2023-08-20T03:11:04;17.97;;;16.27;;
8435;SDS011;4255;48.730;9.156;2023-08-20T03:13:29;17.50;;;15.70;;
8435;SDS011;4255;48.730;9.156;2023-08-20T03:15:55;20.23;;;15.80;;
8435;SDS011;4255;48.730;9.156;2023-08-20T03:18:20;20.27;;;16.23;;
8435;SDS011;4255;48.730;9.156;2023-08-20T03:20:46;19.13;;;17.13;;
8435;SDS011;4255;48.730;9.156;2023-08-20T03:23:12;16.00;;;14.40;;
8435;SDS011;4255;48.730;9.156;2023-08-20T03:25:38;16.30;;;14.60;;
8435;SDS011;4255;48.730;9.156;2023-08-20T03:28:04;19.17;;;17.30;;
8435;SDS011;4255;48.730;9.156;2023-08-20T03:30:29;19.83;;;17.87;;
8435;SDS011;4255;48.730;9.156;2023-08-20T03:32:56;20.17;;;17.27;;
8435;SDS011;4255;48.730;9.156;2023-08-20T03:35:22;20.20;;;17.43;;
8435;SDS011;4255;48.730;9.156;2023-08-20T03:37:48;20.70;;;18.50;;
8435;SDS011;4255;48.730;9.156;2023-08-20T03:40:13;20.27;;;18.17;;
8435;SDS011;4255;48.730;9.156;2023-08-20T03:42:40;19.40;;;17.27;;
8435;SDS011;4255;48.730;9.156;2023-08-20T03:45:05;21.40;;;17.57;;
8435;SDS011;4255;48.730;9.156;2023-08-20T03:47:31;18.17;;;16.50;;
8435;SDS011;4255;48.730;9.156;2023-08-20T03:49:57;23.00;;;18.07;;
8435;SDS011;4255;48.730;9.156;2023-08-20T03:52:23;18.97;;;17.03;;
8435;SDS011;4255;48.730;9.156;2023-08-20T03:54:49;20.23;;;16.73;;
8435;SDS011;4255;48.730;9.156;2023-08-20T03:57:15;20.43;;;17.13;;
8435;SDS011;4255;48.730;9.156;2023-08-20T03:59:41;19.90;;;17.57;;
8435;SDS011;4255;48.730;9.156;2023-08-20T04:02:06;21.93;;;16.67;;
8435;SDS011;4255;48.730;9.156;2023-08-20T04:04:32;19.37;;;17.27;;
8435;SDS011;4255;48.730;9.156;2023-08-20T04:06:58;20.30;;;18.10;;
8435;SDS011;4255;48.730;9.156;2023-08-20T04:09:23;20.97;;;17.60;;
8435;SDS011;4255;48.730;9.156;2023-08-20T04:11:49;21.13;;;18.60;;
8435;SDS011;4255;48.730;9.156;2023-08-20T04:14:14;21.70;;;19.17;;
8435;SDS011;4255;48.730;9.156;2023-08-20T04:16:40;21.30;;;17.97;;
8435;SDS011;4255;48.730;9.156;2023-08-20T04:19:06;25.50;;;18.77;;
8435;SDS011;4255;48.730;9.156;2023-08-20T04:21:31;20.80;;;18.20;;
8435;SDS011;4255;48.730;9.156;2023-08-20T04:23:57;21.17;;;19.07;;
8435;SDS011;4255;48.730;9.156;2023-08-20T04:26:22;19.83;;;17.90;;
8435;SDS011;4255;48.730;9.156;2023-08-20T04:28:48;22.40;;;18.40;;
8435;SDS011;4255;48.730;9.156;2023-08-20T04:31:13;19.90;;;18.00;;
8435;SDS011;4255;48.730;9.156;2023-08-20T04:33:39;21.73;;;19.23;;
8435;SDS011;4255;48.730;9.156;2023-08-20T04:36:05;21.10;;;18.53;;
8435;SDS011;4255;48.730;9.156;2023-08-20T04:38:30;19.83;;;17.93;;
8435;SDS011;4255;48.730;9.156;2023-08-20T04:40:56;21.50;;;18.47;;
8435;SDS011;4255;48.730;9.156;2023-08-20T04:43:21;20.53;;;16.40;;
8435;SDS011;4255;48.730;9.156;2023-08-20T04:45:47;20.13;;;17.90;;
8435;SDS011;4255;48.730;9.156;2023-08-20T04:48:14;22.87;;;18.63;;
8435;SDS011;4255;48.730;9.156;2023-08-20T04:50:40;20.60;;;18.37;;
8435;SDS011;4255;48.730;9.156;2023-08-20T04:53:05;20.97;;;18.77;;
8435;SDS011;4255;48.730;9.156;2023-08-20T04:55:31;21.67;;;18.27;;
8435;SDS011;4255;48.730;9.156;2023-08-20T04:57:57;26.60;;;18.20;;
8435;SDS011;4255;48.730;9.156;2023-08-20T05:00:22;19.20;;;16.23;;
8435;SDS011;4255;48.730;9.156;2023-08-20T05:02:48;19.17;;;17.00;;
8435;SDS011;4255;48.730;9.156;2023-08-20T05:05:14;19.93;;;17.83;;
8435;SDS011;4255;48.730;9.156;2023-08-20T05:07:39;21.27;;;18.53;;
8435;SDS011;4255;48.730;9.156;2023-08-20T05:10:06;19.07;;;17.17;;
8435;SDS011;4255;48.730;9.156;2023-08-20T05:12:32;18.50;;;16.20;;
8435;SDS011;4255;48.730;9.156;2023-08-20T05:14:57;16.37;;;14.87;;
8435;SDS011;4255;48.730;9.156;2023-08-20T05:17:23;17.83;;;15.93;;
8435;SDS011;4255;48.730;9.156;2023-08-20T05:19:49;17.47;;;15.77;;
8435;SDS011;4255;48.730;9.156;2023-08-20T05:22:14;16.77;;;15.00;;
8435;SDS011;4255;48.730;9.156;2023-08-20T05:24:40;16.07;;;13.13;;
8435;SDS011;4255;48.730;9.156;2023-08-20T05:29:35;19.77;;;16.33;;
8435;SDS011;4255;48.730;9.156;2023-08-20T05:32:01;17.77;;;16.00;;
8435;SDS011;4255;48.730;9.156;2023-08-20T05:34:27;18.30;;;16.30;;
8435;SDS011;4255;48.730;9.156;2023-08-20T05:36:53;19.07;;;17.07;;
8435;SDS011;4255;48.730;9.156;2023-08-20T05:39:19;20.30;;;18.17;;
8435;SDS011;4255;48.730;9.156;2023-08-20T05:41:44;18.63;;;16.70;;
8435;SDS011;4255;48.730;9.156;2023-08-20T05:44:10;21.43;;;17.00;;
8435;SDS011;4255;48.730;9.156;2023-08-20T05:46:36;21.53;;;18.20;;
8435;SDS011;4255;48.730;9.156;2023-08-20T05:49:01;17.10;;;15.33;;
8435;SDS011;4255;48.730;9.156;2023-08-20T05:51:27;17.80;;;14.43;;
8435;SDS011;4255;48.730;9.156;2023-08-20T05:53:52;17.43;;;15.57;;
8435;SDS011;4255;48.730;9.156;2023-08-20T05:56:18;18.73;;;16.70;;
8435;SDS011;4255;48.730;9.156;2023-08-20T05:58:44;16.80;;;14.40;;
8435;SDS011;4255;48.730;9.156;2023-08-20T06:01:09;16.30;;;14.70;;
8435;SDS011;4255;48.730;9.156;2023-08-20T06:03:35;17.67;;;13.53;;
8435;SDS011;4255;48.730;9.156;2023-08-20T06:06:00;18.03;;;13.60;;
8435;SDS011;4255;48.730;9.156;2023-08-20T06:08:27;19.20;;;13.47;;
8435;SDS011;4255;48.730;9.156;2023-08-20T06:10:52;17.70;;;13.67;;
8435;SDS011;4255;48.730;9.156;2023-08-20T06:13:18;16.23;;;14.77;;
8435;SDS011;4255;48.730;9.156;2023-08-20T06:15:44;15.80;;;14.20;;
8435;SDS011;4255;48.730;9.156;2023-08-20T06:18:09;16.90;;;15.20;;
8435;SDS011;4255;48.730;9.156;2023-08-20T06:20:35;18.80;;;13.80;;
8435;SDS011;4255;48.730;9.156;2023-08-20T06:23:00;15.37;;;13.90;;
8435;SDS011;4255;48.730;9.156;2023-08-20T06:25:26;16.90;;;14.60;;
8435;SDS011;4255;48.730;9.156;2023-08-20T06:27:51;16.10;;;14.43;;
8435;SDS011;4255;48.730;9.156;2023-08-20T06:30:17;14.70;;;13.30;;
8435;SDS011;4255;48.730;9.156;2023-08-20T06:32:46;15.93;;;13.77;;
8435;SDS011;4255;48.730;9.156;2023-08-20T06:35:11;16.40;;;13.97;;
8435;SDS011;4255;48.730;9.156;2023-08-20T06:37:40;19.67;;;13.83;;
8435;SDS011;4255;48.730;9.156;2023-08-20T06:40:06;19.13;;;12.37;;
8435;SDS011;4255;48.730;9.156;2023-08-20T06:42:32;14.50;;;13.20;;
8435;SDS011;4255;48.730;9.156;2023-08-20T06:44:58;16.50;;;13.27;;
8435;SDS011;4255;48.730;9.156;2023-08-20T06:47:24;18.13;;;13.70;;
8435;SDS011;4255;48.730;9.156;2023-08-20T06:49:50;16.37;;;14.03;;
8435;SDS011;4255;48.730;9.156;2023-08-20T06:52:16;15.50;;;12.63;;
8435;SDS011;4255;48.730;9.156;2023-08-20T06:54:42;13.20;;;11.97;;
8435;SDS011;4255;48.730;9.156;2023-08-20T06:57:07;14.40;;;13.00;;
8435;SDS011;4255;48.730;9.156;2023-08-20T06:59:33;16.97;;;13.63;;
8435;SDS011;4255;48.730;9.156;2023-08-20T07:01:59;16.43;;;13.50;;
8435;SDS011;4255;48.730;9.156;2023-08-20T07:04:25;15.93;;;12.93;;
8435;SDS011;4255;48.730;9.156;2023-08-20T07:06:51;15.00;;;13.13;;
8435;SDS011;4255;48.730;9.156;2023-08-20T07:09:16;15.03;;;13.33;;
8435;SDS011;4255;48.730;9.156;2023-08-20T07:11:42;15.47;;;13.33;;
8435;SDS011;4255;48.730;9.156;2023-08-20T07:14:08;15.93;;;13.13;;
8435;SDS011;4255;48.730;9.156;2023-08-20T07:16:33;15.47;;;13.10;;
8435;SDS011;4255;48.730;9.156;2023-08-20T07:18:59;13.30;;;11.90;;
8435;SDS011;4255;48.730;9.156;2023-08-20T07:21:24;14.27;;;12.77;;
8435;SDS011;4255;48.730;9.156;2023-08-20T07:23:50;18.03;;;12.83;;
8435;SDS011;4255;48.730;9.156;2023-08-20T07:26:16;13.80;;;12.50;;
8435;SDS011;4255;48.730;9.156;2023-08-20T07:28:42;14.90;;;13.40;;
8435;SDS011;4255;48.730;9.156;2023-08-20T07:31:26;14.27;;;12.20;;
8435;SDS011;4255;48.730;9.156;2023-08-20T07:33:53;14.37;;;12.87;;
8435;SDS011;4255;48.730;9.156;2023-08-20T07:36:20;17.00;;;12.77;;
8435;SDS011;4255;48.730;9.156;2023-08-20T07:38:47;12.90;;;11.70;;
8435;SDS011;4255;48.730;9.156;2023-08-20T07:41:13;12.17;;;11.13;;
8435;SDS011;4255;48.730;9.156;2023-08-20T07:43:39;12.33;;;11.23;;
8435;SDS011;4255;48.730;9.156;2023-08-20T07:46:06;14.20;;;11.67;;
8435;SDS011;4255;48.730;9.156;2023-08-20T07:48:32;13.57;;;11.80;;
8435;SDS011;4255;48.730;9.156;2023-08-20T07:50:59;13.70;;;11.90;;
8435;SDS011;4255;48.730;9.156;2023-08-20T07:53:25;12.67;;;11.57;;
8435;SDS011;4255;48.730;9.156;2023-08-20T07:55:51;11.50;;;10.50;;
8435;SDS011;4255;48.730;9.156;2023-08-20T07:58:17;15.70;;;12.23;;
8435;SDS011;4255;48.730;9.156;2023-08-20T08:00:43;12.97;;;11.90;;
8435;SDS011;4255;48.730;9.156;2023-08-20T08:03:08;14.73;;;11.97;;
8435;SDS011;4255;48.730;9.156;2023-08-20T08:05:35;13.00;;;11.60;;
8435;SDS011;4255;48.730;9.156;2023-08-20T08:08:01;13.50;;;11.23;;
8435;SDS011;4255;48.730;9.156;2023-08-20T08:10:27;16.63;;;12.77;;
8435;SDS011;4255;48.730;9.156;2023-08-20T08:12:53;15.60;;;12.20;;
8435;SDS011;4255;48.730;9.156;2023-08-20T08:15:19;12.03;;;11.03;;
8435;SDS011;4255;48.730;9.156;2023-08-20T08:17:44;17.67;;;11.70;;
8435;SDS011;4255;48.730;9.156;2023-08-20T08:20:10;13.70;;;12.30;;
8435;SDS011;4255;48.730;9.156;2023-08-20T08:22:36;14.50;;;11.70;;
8435;SDS011;4255;48.730;9.156;2023-08-20T08:25:01;15.87;;;14.37;;
8435;SDS011;4255;48.730;9.156;2023-08-20T08:27:27;13.53;;;12.13;;
8435;SDS011;4255;48.730;9.156;2023-08-20T08:29:52;13.77;;;12.37;;
8435;SDS011;4255;48.730;9.156;2023-08-20T08:32:18;11.23;;;10.23;;
8435;SDS011;4255;48.730;9.156;2023-08-20T08:34:44;14.57;;;13.07;;
8435;SDS011;4255;48.730;9.156;2023-08-20T08:37:09;13.20;;;12.07;;
8435;SDS011;4255;48.730;9.156;2023-08-20T08:39:37;18.10;;;12.60;;
8435;SDS011;4255;48.730;9.156;2023-08-20T08:42:03;13.57;;;12.20;;
8435;SDS011;4255;48.730;9.156;2023-08-20T08:44:31;12.73;;;11.60;;
8435;SDS011;4255;48.730;9.156;2023-08-20T08:46:58;16.03;;;11.87;;
8435;SDS011;4255;48.730;9.156;2023-08-20T08:49:24;13.83;;;11.37;;
8435;SDS011;4255;48.730;9.156;2023-08-20T08:51:51;13.27;;;11.97;;
8435;SDS011;4255;48.730;9.156;2023-08-20T08:54:18;14.77;;;13.20;;
8435;SDS011;4255;48.730;9.156;2023-08-20T08:56:45;13.33;;;12.07;;
8435;SDS011;4255;48.730;9.156;2023-08-20T08:59:11;15.13;;;12.43;;
8435;SDS011;4255;48.730;9.156;2023-08-20T09:01:39;14.23;;;12.83;;
8435;SDS011;4255;48.730;9.156;2023-08-20T09:04:06;12.57;;;11.47;;
8435;SDS011;4255;48.730;9.156;2023-08-20T09:06:48;13.10;;;11.80;;
8435;SDS011;4255;48.730;9.156;2023-08-20T09:09:14;12.23;;;11.03;;
8435;SDS011;4255;48.730;9.156;2023-08-20T09:11:41;12.07;;;10.63;;
8435;SDS011;4255;48.730;9.156;2023-08-20T09:14:07;14.03;;;12.67;;
8435;SDS011;4255;48.730;9.156;2023-08-20T09:16:32;12.43;;;11.10;;
8435;SDS011;4255;48.730;9.156;2023-08-20T09:18:59;16.60;;;11.03;;
8435;SDS011;4255;48.730;9.156;2023-08-20T09:21:26;146.27;;;53.83;;
8435;SDS011;4255;48.730;9.156;2023-08-20T09:23:56;12.80;;;11.63;;
8435;SDS011;4255;48.730;9.156;2023-08-20T09:26:25;15.17;;;12.27;;
8435;SDS011;4255;48.730;9.156;2023-08-20T09:28:54;24.70;;;12.97;;
8435;SDS011;4255;48.730;9.156;2023-08-20T09:31:22;14.70;;;11.23;;
8435;SDS011;4255;48.730;9.156;2023-08-20T09:34:02;13.90;;;11.80;;
8435;SDS011;4255;48.730;9.156;2023-08-20T09:36:34;14.23;;;10.80;;
8435;SDS011;4255;48.730;9.156;2023-08-20T09:39:03;12.87;;;11.77;;
8435;SDS011;4255;48.730;9.156;2023-08-20T09:41:29;19.10;;;11.30;;
8435;SDS011;4255;48.730;9.156;2023-08-20T09:43:58;11.90;;;9.87;;
8435;SDS011;4255;48.730;9.156;2023-08-20T09:46:24;11.30;;;9.50;;
8435;SDS011;4255;48.730;9.156;2023-08-20T09:48:52;11.03;;;9.17;;
8435;SDS011;4255;48.730;9.156;2023-08-20T09:51:28;10.57;;;9.77;;
8435;SDS011;4255;48.730;9.156;2023-08-20T09:56:39;18.37;;;12.27;;
8435;SDS011;4255;48.730;9.156;2023-08-20T09:59:07;15.97;;;11.00;;
8435;SDS011;4255;48.730;9.156;2023-08-20T10:01:35;10.60;;;9.07;;
8435;SDS011;4255;48.730;9.156;2023-08-20T10:04:02;12.20;;;10.90;;
8435;SDS011;4255;48.730;9.156;2023-08-20T10:06:28;12.20;;;10.97;;
8435;SDS011;4255;48.730;9.156;2023-08-20T10:08:55;12.13;;;10.90;;
8435;SDS011;4255;48.730;9.156;2023-08-20T10:11:22;16.50;;;10.73;;
8435;SDS011;4255;48.730;9.156;2023-08-20T10:13:48;18.80;;;12.17;;
8435;SDS011;4255;48.730;9.156;2023-08-20T10:16:16;20.43;;;11.77;;
8435;SDS011;4255;48.730;9.156;2023-08-20T10:18:46;17.93;;;10.57;;
8435;SDS011;4255;48.730;9.156;2023-08-20T10:21:12;11.17;;;9.87;;
8435;SDS011;4255;48.730;9.156;2023-08-20T10:23:41;12.80;;;9.57;;
8435;SDS011;4255;48.730;9.156;2023-08-20T10:26:10;11.10;;;10.10;;
8435;SDS011;4255;48.730;9.156;2023-08-20T10:28:36;13.17;;;11.80;;
8435;SDS011;4255;48.730;9.156;2023-08-20T10:31:08;10.97;;;9.87;;
8435;SDS011;4255;48.730;9.156;2023-08-20T10:33:38;11.43;;;9.90;;
8435;SDS011;4255;48.730;9.156;2023-08-20T10:36:14;10.80;;;9.80;;
8435;SDS011;4255;48.730;9.156;2023-08-20T10:38:40;9.30;;;8.53;;
8435;SDS011;4255;48.730;9.156;2023-08-20T10:41:06;14.80;;;9.70;;
8435;SDS011;4255;48.730;9.156;2023-08-20T10:43:39;10.93;;;9.47;;
8435;SDS011;4255;48.730;9.156;2023-08-20T10:46:06;14.67;;;10.93;;
8435;SDS011;4255;48.730;9.156;2023-08-20T10:48:33;9.70;;;9.00;;
8435;SDS011;4255;48.730;9.156;2023-08-20T10:51:10;10.10;;;9.20;;
8435;SDS011;4255;48.730;9.156;2023-08-20T10:53:45;14.13;;;9.83;;
8435;SDS011;4255;48.730;9.156;2023-08-20T10:59:16;14.80;;;11.50;;
8435;SDS011;4255;48.730;9.156;2023-08-20T11:01:53;14.50;;;12.43;;
8435;SDS011;4255;48.730;9.156;2023-08-20T11:04:22;16.87;;;15.13;;
8435;SDS011;4255;48.730;9.156;2023-08-20T11:06:55;15.63;;;12.37;;
8435;SDS011;4255;48.730;9.156;2023-08-20T11:09:25;12.20;;;10.97;;
8435;SDS011;4255;48.730;9.156;2023-08-20T11:11:52;10.13;;;9.23;;
8435;SDS011;4255;48.730;9.156;2023-08-20T11:14:18;11.43;;;10.40;;
8435;SDS011;4255;48.730;9.156;2023-08-20T11:16:45;12.87;;;10.63;;
8435;SDS011;4255;48.730;9.156;2023-08-20T11:19:12;11.07;;;10.03;;
8435;SDS011;4255;48.730;9.156;2023-08-20T11:21:39;12.53;;;10.10;;
8435;SDS011;4255;48.730;9.156;2023-08-20T11:24:09;13.23;;;9.17;;
8435;SDS011;4255;48.730;9.156;2023-08-20T11:26:36;12.07;;;8.90;;
8435;SDS011;4255;48.730;9.156;2023-08-20T11:29:07;11.63;;;9.73;;
8435;SDS011;4255;48.730;9.156;2023-08-20T11:31:37;10.03;;;8.90;;
8435;SDS011;4255;48.730;9.156;2023-08-20T11:34:04;9.93;;;9.13;;
8435;SDS011;4255;48.730;9.156;2023-08-20T11:36:30;10.93;;;9.60;;
8435;SDS011;4255;48.730;9.156;2023-08-20T11:38:56;11.60;;;10.27;;
8435;SDS011;4255;48.730;9.156;2023-08-20T11:41:22;9.87;;;8.93;;
8435;SDS011;4255;48.730;9.156;2023-08-20T11:43:49;10.23;;;9.30;;
8435;SDS011;4255;48.730;9.156;2023-08-20T11:46:18;9.60;;;8.70;;
8435;SDS011;4255;48.730;9.156;2023-08-20T11:51:27;10.40;;;9.50;;
8435;SDS011;4255;48.730;9.156;2023-08-20T11:53:52;12.40;;;8.67;;
8435;SDS011;4255;48.730;9.156;2023-08-20T11:59:39;11.10;;;9.90;;
8435;SDS011;4255;48.730;9.156;2023-08-20T12:08:49;12.43;;;8.87;;
8435;SDS011;4255;48.730;9.156;2023-08-20T12:11:15;12.67;;;8.97;;
8435;SDS011;4255;48.730;9.156;2023-08-20T12:13:40;12.57;;;8.97;;
8435;SDS011;4255;48.730;9.156;2023-08-20T12:16:06;9.97;;;8.80;;
8435;SDS011;4255;48.730;9.156;2023-08-20T12:18:32;9.10;;;8.23;;
8435;SDS011;4255;48.730;9.156;2023-08-20T12:20:57;9.60;;;8.70;;
8435;SDS011;4255;48.730;9.156;2023-08-20T12:23:23;10.17;;;8.53;;
8435;SDS011;4255;48.730;9.156;2023-08-20T12:25:52;9.10;;;8.27;;
8435;SDS011;4255;48.730;9.156;2023-08-20T12:28:17;13.80;;;9.63;;
8435;SDS011;4255;48.730;9.156;2023-08-20T12:30:43;8.50;;;7.73;;
8435;SDS011;4255;48.730;9.156;2023-08-20T12:33:10;9.70;;;8.80;;
8435;SDS011;4255;48.730;9.156;2023-08-20T12:35:36;9.67;;;8.77;;
8435;SDS011;4255;48.730;9.156;2023-08-20T12:38:02;9.17;;;8.37;;
8435;SDS011;4255;48.730;9.156;2023-08-20T12:40:28;8.93;;;8.13;;
8435;SDS011;4255;48.730;9.156;2023-08-20T12:42:54;10.40;;;9.40;;
8435;SDS011;4255;48.730;9.156;2023-08-20T12:45:20;11.30;;;8.60;;
8435;SDS011;4255;48.730;9.156;2023-08-20T12:47:46;9.73;;;8.90;;
8435;SDS011;4255;48.730;9.156;2023-08-20T12:50:11;10.70;;;9.70;;
8435;SDS011;4255;48.730;9.156;2023-08-20T12:52:39;10.10;;;9.00;;
8435;SDS011;4255;48.730;9.156;2023-08-20T12:55:05;9.47;;;8.57;;
8435;SDS011;4255;48.730;9.156;2023-08-20T12:57:30;9.60;;;8.60;;
8435;SDS011;4255;48.730;9.156;2023-08-20T12:59:58;9.50;;;8.53;;
8435;SDS011;4255;48.730;9.156;2023-08-20T13:02:24;8.80;;;8.00;;
8435;SDS011;4255;48.730;9.156;2023-08-20T13:04:50;10.33;;;9.33;;
8435;SDS011;4255;48.730;9.156;2023-08-20T13:07:16;12.70;;;8.67;;
8435;SDS011;4255;48.730;9.156;2023-08-20T13:09:42;9.67;;;8.63;;
8435;SDS011;4255;48.730;9.156;2023-08-20T13:12:11;12.57;;;8.30;;
8435;SDS011;4255;48.730;9.156;2023-08-20T13:14:38;40.77;;;9.03;;
8435;SDS011;4255;48.730;9.156;2023-08-20T13:17:06;11.50;;;8.67;;
8435;SDS011;4255;48.730;9.156;2023-08-20T13:19:32;8.93;;;8.00;;
8435;SDS011;4255;48.730;9.156;2023-08-20T13:21:58;8.90;;;7.87;;
8435;SDS011;4255;48.730;9.156;2023-08-20T13:24:23;9.77;;;8.80;;
8435;SDS011;4255;48.730;9.156;2023-08-20T13:26:49;9.47;;;8.77;;
8435;SDS011;4255;48.730;9.156;2023-08-20T13:29:16;9.80;;;8.87;;
8435;SDS011;4255;48.730;9.156;2023-08-20T13:31:41;9.47;;;8.60;;
8435;SDS011;4255;48.730;9.156;2023-08-20T13:34:07;8.00;;;7.40;;
8435;SDS011;4255;48.730;9.156;2023-08-20T13:36:32;10.03;;;8.40;;
8435;SDS011;4255;48.730;9.156;2023-08-20T13:38:58;13.90;;;9.30;;
8435;SDS011;4255;48.730;9.156;2023-08-20T13:41:24;9.90;;;8.80;;
8435;SDS011;4255;48.730;9.156;2023-08-20T13:43:49;8.97;;;8.17;;
8435;SDS011;4255;48.730;9.156;2023-08-20T13:46:16;11.20;;;7.50;;
8435;SDS011;4255;48.730;9.156;2023-08-20T13:48:41;9.30;;;8.40;;
8435;SDS011;4255;48.730;9.156;2023-08-20T13:51:07;9.40;;;7.40;;
8435;SDS011;4255;48.730;9.156;2023-08-20T13:53:33;8.63;;;7.83;;
8435;SDS011;4255;48.730;9.156;2023-08-20T13:55:58;8.73;;;7.80;;
8435;SDS011;4255;48.730;9.156;2023-08-20T13:58:24;10.57;;;7.47;;
8435;SDS011;4255;48.730;9.156;2023-08-20T14:00:50;9.17;;;7.90;;
8435;SDS011;4255;48.730;9.156;2023-08-20T14:03:15;8.57;;;7.77;;
8435;SDS011;4255;48.730;9.156;2023-08-20T14:05:41;9.80;;;7.70;;
8435;SDS011;4255;48.730;9.156;2023-08-20T14:08:06;8.70;;;7.93;;
8435;SDS011;4255;48.730;9.156;2023-08-20T14:10:32;10.77;;;7.23;;
8435;SDS011;4255;48.730;9.156;2023-08-20T14:12:57;8.93;;;7.80;;
8435;SDS011;4255;48.730;9.156;2023-08-20T14:15:23;8.70;;;7.87;;
8435;SDS011;4255;48.730;9.156;2023-08-20T14:17:49;8.70;;;7.90;;
8435;SDS011;4255;48.730;9.156;2023-08-20T14:20:14;13.10;;;8.77;;
8435;SDS011;4255;48.730;9.156;2023-08-20T14:22:40;8.33;;;7.53;;
8435;SDS011;4255;48.730;9.156;2023-08-20T14:25:06;11.00;;;7.40;;
8435;SDS011;4255;48.730;9.156;2023-08-20T14:27:32;8.13;;;6.90;;
8435;SDS011;4255;48.730;9.156;2023-08-20T14:29:57;8.67;;;7.73;;
8435;SDS011;4255;48.730;9.156;2023-08-20T14:32:23;11.27;;;8.70;;
8435;SDS011;4255;48.730;9.156;2023-08-20T14:34:48;10.53;;;8.10;;
8435;SDS011;4255;48.730;9.156;2023-08-20T14:37:14;9.67;;;8.27;;
8435;SDS011;4255;48.730;9.156;2023-08-20T14:39:40;8.60;;;7.90;;
8435;SDS011;4255;48.730;9.156;2023-08-20T14:42:05;8.63;;;7.93;;
8435;SDS011;4255;48.730;9.156;2023-08-20T14:44:31;13.23;;;8.10;;
8435;SDS011;4255;48.730;9.156;2023-08-20T14:46:57;8.93;;;7.70;;
8435;SDS011;4255;48.730;9.156;2023-08-20T14:49:23;14.67;;;7.77;;
8435;SDS011;4255;48.730;9.156;2023-08-20T14:51:49;9.10;;;7.60;;
8435;SDS011;4255;48.730;9.156;2023-08-20T14:54:14;8.17;;;7.40;;
8435;SDS011;4255;48.730;9.156;2023-08-20T14:56:40;10.50;;;8.03;;
8435;SDS011;4255;48.730;9.156;2023-08-20T14:59:05;9.20;;;8.40;;
8435;SDS011;4255;48.730;9.156;2023-08-20T15:01:31;8.47;;;7.47;;
8435;SDS011;4255;48.730;9.156;2023-08-20T15:03:56;12.03;;;7.97;;
8435;SDS011;4255;48.730;9.156;2023-08-20T15:06:22;9.47;;;7.70;;
8435;SDS011;4255;48.730;9.156;2023-08-20T15:08:49;8.90;;;7.10;;
8435;SDS011;4255;48.730;9.156;2023-08-20T15:11:15;10.60;;;8.10;;
8435;SDS011;4255;48.730;9.156;2023-08-20T15:13:41;8.40;;;7.60;;
8435;SDS011;4255;48.730;9.156;2023-08-20T15:16:06;7.83;;;6.97;;